Terminal Aerodrome Forecast
Issued by NWS

Home | Current Version | Previous Version | Text Only | Print | Product List | Glossary On
Versions: 1 2 3 4 5 6 7 8 9 10 11 12 13
706
FTUS42 KTBW 010520
TAFLAL
TAF
KLAL 010520Z 0106/0206 14010KT P6SM FEW050 SCT250
     FM011600 18010G15KT P6SM SCT035 BKN080
     FM012100 23009KT P6SM VCTS FEW025CB SCT040 BKN250
     FM020100 20005KT P6SM VCTS FEW025CB SCT040 BKN250
     FM020400 VRB04KT P6SM SCT035 BKN200
      AMD NOT SKED TIL 011100=

USA.gov is the U.S. government's official web portal to all federal, state and local government web resources and services.